createdAt,value
2017-08-17T00:00:45.023Z,11.40
2017-08-17T00:05:48.227Z,11.67
2017-08-17T00:10:51.438Z,10.90
2017-08-17T00:15:54.638Z,11.40
2017-08-17T00:20:57.825Z,11.63
2017-08-17T00:26:01.784Z,11.47
2017-08-17T00:31:04.971Z,12.83
2017-08-17T00:36:08.151Z,11.60
2017-08-17T00:41:11.346Z,12.17
2017-08-17T00:46:14.533Z,11.10
2017-08-17T00:51:17.728Z,11.57
2017-08-17T00:56:20.907Z,11.77
2017-08-17T01:01:24.194Z,10.37
2017-08-17T01:06:28.136Z,12.90
2017-08-17T01:11:31.323Z,12.10
2017-08-17T01:16:35.372Z,12.83
2017-08-17T01:21:39.277Z,11.33
2017-08-17T01:26:43.486Z,11.20
2017-08-17T01:31:46.658Z,12.10
2017-08-17T01:36:49.849Z,10.17
2017-08-17T01:41:53.010Z,10.53
2017-08-17T01:46:56.193Z,11.90
2017-08-17T01:51:59.370Z,11.60
2017-08-17T01:57:02.685Z,12.40
2017-08-17T02:02:05.874Z,12.20
2017-08-17T02:07:09.036Z,12.37
2017-08-17T02:12:12.197Z,11.40
2017-08-17T02:17:15.389Z,11.67
2017-08-17T02:22:18.604Z,12.07
2017-08-17T02:27:21.833Z,10.57
2017-08-17T02:32:25.053Z,10.97
2017-08-17T02:37:28.228Z,11.40
2017-08-17T02:42:31.529Z,11.83
2017-08-17T02:47:35.458Z,10.40
2017-08-17T02:52:38.653Z,11.87
2017-08-17T02:57:42.609Z,11.30
2017-08-17T03:02:45.824Z,12.17
2017-08-17T03:07:49.111Z,11.43
2017-08-17T03:12:52.341Z,10.73
2017-08-17T03:17:55.529Z,12.00
2017-08-17T03:22:58.704Z,12.50
2017-08-17T03:28:02.668Z,12.03
2017-08-17T03:33:05.870Z,12.13
2017-08-17T03:38:09.041Z,11.27
2017-08-17T03:43:13.001Z,10.10
2017-08-17T03:48:16.214Z,11.27
2017-08-17T03:53:19.749Z,11.67
2017-08-17T03:58:22.975Z,9.97
2017-08-17T04:03:26.206Z,11.70
2017-08-17T04:08:30.177Z,12.10
2017-08-17T04:13:33.850Z,10.03
2017-08-17T04:18:37.877Z,10.43
2017-08-17T04:23:41.072Z,10.37
2017-08-17T04:28:45.172Z,11.87
2017-08-17T04:33:48.356Z,10.67
2017-08-17T04:38:51.631Z,11.00
2017-08-17T04:43:54.851Z,10.80
2017-08-17T04:48:58.032Z,10.50
2017-08-17T04:54:01.993Z,10.97
2017-08-17T04:59:05.200Z,11.70
2017-08-17T05:04:08.401Z,9.60
2017-08-17T05:09:11.594Z,11.80
2017-08-17T05:14:14.902Z,10.43
2017-08-17T05:19:18.824Z,9.63
2017-08-17T05:24:21.998Z,11.23
2017-08-17T05:29:25.196Z,9.70
2017-08-17T05:34:28.374Z,9.80
2017-08-17T05:39:31.558Z,9.93
2017-08-17T05:44:35.661Z,9.97
2017-08-17T05:49:39.613Z,10.03
2017-08-17T05:54:42.806Z,9.70
2017-08-17T05:59:46.031Z,9.60
2017-08-17T06:04:49.251Z,9.03
2017-08-17T06:09:52.437Z,9.83
2017-08-17T06:14:55.651Z,9.20
2017-08-17T06:19:58.866Z,11.37
2017-08-17T06:25:02.065Z,10.97
2017-08-17T06:30:05.254Z,10.03
2017-08-17T06:35:09.206Z,10.40
2017-08-17T06:40:12.362Z,12.13
2017-08-17T06:45:16.360Z,12.47
2017-08-17T06:50:19.537Z,10.83
2017-08-17T06:55:22.741Z,10.43
2017-08-17T07:00:25.937Z,11.67
2017-08-17T07:05:29.126Z,10.80
2017-08-17T07:10:33.069Z,10.70
2017-08-17T07:15:36.369Z,11.33
2017-08-17T07:20:40.341Z,10.53
2017-08-17T07:25:43.605Z,10.37
2017-08-17T07:30:47.536Z,12.50
2017-08-17T07:35:50.774Z,11.37
2017-08-17T07:40:55.233Z,11.10
2017-08-17T07:45:58.469Z,11.97
2017-08-17T07:51:02.413Z,13.43
2017-08-17T07:56:05.598Z,12.33
2017-08-17T08:01:09.570Z,14.63
2017-08-17T08:06:12.742Z,12.90
2017-08-17T08:11:15.967Z,14.00
2017-08-17T08:16:19.191Z,13.93
2017-08-17T08:21:22.460Z,14.37
2017-08-17T08:26:26.437Z,16.60
2017-08-17T08:31:29.641Z,16.20
2017-08-17T08:36:33.153Z,16.07
2017-08-17T08:41:36.358Z,15.50
2017-08-17T08:46:39.649Z,17.33
2017-08-17T08:51:42.980Z,16.37
2017-08-17T08:56:46.178Z,15.10
2017-08-17T09:01:49.358Z,14.90
2017-08-17T09:06:52.582Z,15.70
2017-08-17T09:11:55.774Z,15.30
2017-08-17T09:16:59.009Z,15.33
2017-08-17T09:22:02.358Z,15.83
2017-08-17T09:27:06.326Z,14.80
2017-08-17T09:32:09.534Z,15.03
2017-08-17T09:37:12.837Z,15.20
2017-08-17T09:42:16.063Z,15.53
2017-08-17T09:47:19.226Z,14.53
2017-08-17T09:52:22.412Z,14.87
2017-08-17T09:57:26.379Z,16.33
2017-08-17T10:02:29.583Z,14.27
2017-08-17T10:07:32.760Z,13.80
2017-08-17T10:12:36.750Z,12.77
2017-08-17T10:17:39.945Z,11.47
2017-08-17T10:22:43.150Z,13.60
2017-08-17T10:27:46.346Z,13.30
2017-08-17T10:32:49.550Z,12.27
2017-08-17T10:37:52.736Z,11.73
2017-08-17T10:42:55.921Z,11.70
2017-08-17T10:47:59.876Z,12.80
2017-08-17T10:53:03.085Z,11.73
2017-08-17T10:58:06.262Z,10.70
2017-08-17T11:03:10.231Z,11.83
2017-08-17T11:08:13.411Z,10.93
2017-08-17T11:13:16.633Z,10.73
2017-08-17T11:18:19.794Z,9.70
2017-08-17T11:23:23.018Z,9.87
2017-08-17T11:28:26.998Z,8.87
2017-08-17T11:33:30.187Z,7.40
2017-08-17T11:38:33.381Z,8.50
2017-08-17T11:43:36.582Z,11.67
2017-08-17T11:48:38.982Z,7.53
2017-08-17T11:53:42.169Z,6.40
2017-08-17T11:58:45.352Z,6.07
2017-08-17T12:03:49.321Z,5.57
2017-08-17T12:08:52.637Z,5.00
2017-08-17T12:13:55.790Z,4.83
2017-08-17T12:18:59.736Z,5.33
2017-08-17T12:24:02.945Z,5.73
2017-08-17T12:29:06.881Z,5.33
2017-08-17T12:34:10.106Z,4.87
2017-08-17T12:39:13.388Z,5.50
2017-08-17T12:44:17.375Z,5.70
2017-08-17T12:49:20.576Z,5.03
2017-08-17T12:54:23.753Z,5.33
2017-08-17T12:59:27.085Z,4.83
2017-08-17T13:04:30.231Z,4.57
2017-08-17T13:09:33.408Z,5.20
2017-08-17T13:14:36.580Z,5.10
2017-08-17T13:19:39.773Z,4.77
2017-08-17T13:24:42.973Z,4.90
2017-08-17T13:29:46.170Z,4.30
2017-08-17T13:34:49.372Z,5.40
2017-08-17T13:39:52.574Z,5.10
2017-08-17T13:44:56.526Z,4.87
2017-08-17T13:49:59.706Z,4.13
2017-08-17T13:55:03.688Z,5.17
2017-08-17T14:00:06.856Z,5.47
2017-08-17T14:05:10.043Z,5.17
2017-08-17T14:10:14.032Z,4.20
2017-08-17T14:15:17.210Z,3.10
2017-08-17T14:20:20.389Z,3.13
2017-08-17T14:25:23.592Z,3.30
2017-08-17T14:30:27.537Z,2.57
2017-08-17T14:35:30.730Z,3.10
2017-08-17T14:40:33.917Z,2.30
2017-08-17T14:45:37.893Z,3.17
2017-08-17T14:50:41.086Z,2.60
2017-08-17T14:55:44.274Z,2.60
2017-08-17T15:00:47.493Z,2.50
2017-08-17T15:05:50.713Z,3.50
2017-08-17T15:10:53.890Z,2.90
2017-08-17T15:15:57.077Z,2.67
2017-08-17T15:21:01.030Z,2.40
2017-08-17T15:26:04.226Z,2.37
2017-08-17T15:31:07.588Z,5.67
2017-08-17T15:36:10.761Z,2.80
2017-08-17T15:41:13.948Z,2.77
2017-08-17T15:46:17.071Z,2.90
2017-08-17T15:51:20.269Z,2.97
2017-08-17T15:56:23.494Z,2.67
2017-08-17T16:01:26.676Z,2.40
2017-08-17T16:06:30.101Z,2.57
2017-08-17T16:11:33.297Z,2.40
2017-08-17T16:16:36.475Z,2.23
2017-08-17T16:21:39.675Z,2.47
2017-08-17T16:26:42.894Z,2.27
2017-08-17T16:31:46.094Z,2.40
2017-08-17T16:36:49.298Z,2.00
2017-08-17T16:41:52.517Z,1.80
2017-08-17T16:46:55.698Z,1.93
2017-08-17T16:51:58.850Z,2.57
2017-08-17T16:57:02.043Z,2.53
2017-08-17T17:02:06.022Z,2.43
2017-08-17T17:07:09.200Z,2.50
2017-08-17T17:12:12.414Z,2.17
2017-08-17T17:17:15.622Z,2.13
2017-08-17T17:22:18.832Z,2.37
2017-08-17T17:27:22.116Z,2.00
2017-08-17T17:32:25.297Z,2.60
2017-08-17T17:37:29.253Z,2.40
2017-08-17T17:42:32.451Z,3.67
2017-08-17T17:48:04.878Z,1.93
2017-08-17T17:53:08.067Z,2.27
2017-08-17T17:58:11.276Z,2.80
2017-08-17T18:03:14.481Z,2.27
2017-08-17T18:08:17.735Z,2.20
2017-08-17T18:13:20.941Z,2.00
2017-08-17T18:18:24.132Z,2.40
2017-08-17T18:23:27.332Z,2.20
2017-08-17T18:28:30.542Z,2.20
2017-08-17T18:33:33.761Z,2.30
2017-08-17T18:38:36.994Z,2.67
2017-08-17T18:43:40.216Z,2.47
2017-08-17T18:48:43.415Z,2.00
2017-08-17T18:53:46.622Z,2.37
2017-08-17T18:58:49.859Z,2.53
2017-08-17T19:03:53.066Z,2.50
2017-08-17T19:08:56.267Z,2.50
2017-08-17T19:13:59.507Z,2.33
2017-08-17T19:19:03.459Z,3.92
2017-08-17T19:24:06.674Z,2.33
2017-08-17T19:29:09.880Z,2.60
2017-08-17T19:34:13.109Z,2.13
2017-08-17T19:39:16.301Z,2.60
2017-08-17T19:44:19.488Z,2.53
2017-08-17T19:49:22.677Z,2.10
2017-08-17T19:54:25.969Z,2.50
2017-08-17T19:59:29.185Z,2.23
2017-08-17T20:04:32.359Z,2.77
2017-08-17T20:09:35.559Z,2.13
2017-08-17T20:14:38.817Z,2.70
2017-08-17T20:19:42.105Z,2.73
2017-08-17T20:24:45.310Z,3.20
2017-08-17T20:29:48.519Z,2.17
2017-08-17T20:34:51.710Z,2.97
2017-08-17T20:39:54.917Z,2.70
2017-08-17T20:44:58.103Z,2.47
2017-08-17T20:50:01.302Z,2.77
2017-08-17T20:55:04.486Z,3.43
2017-08-17T21:00:07.699Z,2.20
2017-08-17T21:05:10.898Z,3.53
2017-08-17T21:10:14.121Z,2.80
2017-08-17T21:15:17.332Z,3.17
2017-08-17T21:20:20.507Z,3.50
2017-08-17T21:25:23.741Z,2.67
2017-08-17T21:30:26.918Z,2.87
2017-08-17T21:35:30.106Z,2.87
2017-08-17T21:40:33.293Z,3.10
2017-08-17T21:45:36.493Z,3.40
2017-08-17T21:50:39.861Z,3.13
2017-08-17T21:55:43.032Z,2.80
2017-08-17T22:00:46.273Z,2.90
2017-08-17T22:05:49.753Z,2.73
2017-08-17T22:10:53.025Z,3.23
2017-08-17T22:15:56.266Z,3.10
2017-08-17T22:20:59.458Z,3.17
2017-08-17T22:26:02.648Z,3.40
2017-08-17T22:31:05.837Z,3.50
2017-08-17T22:36:09.027Z,3.30
2017-08-17T22:41:12.214Z,2.50
2017-08-17T22:46:15.412Z,3.17
2017-08-17T22:51:18.604Z,3.93
2017-08-17T22:56:21.894Z,3.80
2017-08-17T23:01:25.077Z,3.03
2017-08-17T23:06:28.315Z,3.63
2017-08-17T23:11:31.524Z,3.57
2017-08-17T23:16:34.706Z,3.33
2017-08-17T23:21:37.885Z,3.40
2017-08-17T23:26:41.070Z,3.33
2017-08-17T23:31:44.253Z,3.00
2017-08-17T23:36:47.437Z,2.40
2017-08-17T23:41:50.638Z,2.20
2017-08-17T23:46:53.826Z,2.20
2017-08-17T23:51:57.020Z,2.67
2017-08-17T23:57:00.205Z,2.60
